createdAt,value
2018-05-08T00:00:37.570Z,71.65
2018-05-08T00:02:12.655Z,71.08
2018-05-08T00:03:47.746Z,71.25
2018-05-08T00:05:22.902Z,71.40
2018-05-08T00:06:58.001Z,71.87
2018-05-08T00:08:35.488Z,72.39
2018-05-08T00:10:10.644Z,72.50
2018-05-08T00:11:45.798Z,72.65
2018-05-08T00:13:21.189Z,72.74
2018-05-08T00:14:56.231Z,72.85
2018-05-08T00:16:31.320Z,72.94
2018-05-08T00:18:06.442Z,73.13
2018-05-08T00:19:42.881Z,73.27
2018-05-08T00:21:18.616Z,73.17
2018-05-08T00:22:54.510Z,72.99
2018-05-08T00:24:30.370Z,72.99
2018-05-08T00:26:05.549Z,72.93
2018-05-08T00:27:40.707Z,73.07
2018-05-08T00:29:17.335Z,73.14
2018-05-08T00:30:52.493Z,73.17
2018-05-08T00:32:27.738Z,73.38
2018-05-08T00:34:03.775Z,73.46
2018-05-08T00:35:39.684Z,73.38
2018-05-08T00:37:14.825Z,73.07
2018-05-08T00:38:50.670Z,73.11
2018-05-08T00:40:25.768Z,73.27
2018-05-08T00:42:00.858Z,73.26
2018-05-08T00:43:36.675Z,73.12
2018-05-08T00:45:11.763Z,73.21
2018-05-08T00:46:46.855Z,73.55
2018-05-08T00:48:22.712Z,73.69
2018-05-08T00:49:58.714Z,73.68
2018-05-08T00:51:33.800Z,74.09
2018-05-08T00:53:09.713Z,74.27
2018-05-08T00:55:03.422Z,73.81
2018-05-08T00:56:38.480Z,73.84
2018-05-08T00:58:13.589Z,73.89
2018-05-08T00:59:48.730Z,73.91
2018-05-08T01:01:23.820Z,74.23
2018-05-08T01:02:58.911Z,74.24
2018-05-08T01:04:35.053Z,73.98
2018-05-08T01:06:10.148Z,73.89
2018-05-08T01:07:45.284Z,74.07
2018-05-08T01:09:21.098Z,74.63
2018-05-08T01:10:56.193Z,74.95
2018-05-08T01:12:31.291Z,74.89
2018-05-08T01:14:07.123Z,74.61
2018-05-08T01:15:42.300Z,74.49
2018-05-08T01:17:17.387Z,74.52
2018-05-08T01:18:52.504Z,74.51
2018-05-08T01:20:28.403Z,74.50
2018-05-08T01:22:03.472Z,74.42
2018-05-08T01:23:38.920Z,74.58
2018-05-08T01:25:15.544Z,74.73
2018-05-08T01:26:50.636Z,74.87
2018-05-08T01:28:25.744Z,74.60
2018-05-08T01:30:02.709Z,74.53
2018-05-08T01:31:37.836Z,74.57
2018-05-08T01:33:13.129Z,74.51
2018-05-08T01:34:48.238Z,74.58
2018-05-08T01:36:23.349Z,74.31
2018-05-08T01:37:59.178Z,74.43
2018-05-08T01:39:34.345Z,74.41
2018-05-08T01:41:09.454Z,74.77
2018-05-08T01:42:44.537Z,74.99
2018-05-08T01:44:20.435Z,74.89
2018-05-08T01:45:56.954Z,74.97
2018-05-08T01:47:32.861Z,75.20
2018-05-08T01:49:07.957Z,74.79
2018-05-08T01:50:43.045Z,74.78
2018-05-08T01:52:18.897Z,74.89
2018-05-08T01:53:53.992Z,74.82
2018-05-08T01:55:29.843Z,74.83
2018-05-08T01:57:04.984Z,75.03
2018-05-08T01:58:40.089Z,74.86
2018-05-08T02:00:15.188Z,74.77
2018-05-08T02:01:51.068Z,74.86
2018-05-08T02:03:26.308Z,74.95
2018-05-08T02:05:01.391Z,74.86
2018-05-08T02:06:37.171Z,74.77
2018-05-08T02:08:12.244Z,75.09
2018-05-08T02:09:47.639Z,75.58
2018-05-08T02:11:23.489Z,75.19
2018-05-08T02:12:58.619Z,74.92
2018-05-08T02:14:35.141Z,75.73
2018-05-08T02:16:10.215Z,76.06
2018-05-08T02:17:45.305Z,76.27
2018-05-08T02:19:20.436Z,76.10
2018-05-08T02:20:55.578Z,75.87
2018-05-08T02:22:30.650Z,75.79
2018-05-08T02:24:06.455Z,75.60
2018-05-08T02:25:41.523Z,75.77
2018-05-08T02:27:16.968Z,75.97
2018-05-08T02:28:53.470Z,76.30
2018-05-08T02:30:28.809Z,76.74
2018-05-08T02:32:03.957Z,76.93
2018-05-08T02:33:40.355Z,76.80
2018-05-08T02:35:16.274Z,76.57
2018-05-08T02:36:51.455Z,76.83
2018-05-08T02:38:26.612Z,77.22
2018-05-08T02:40:01.654Z,77.52
2018-05-08T02:41:37.434Z,77.68
2018-05-08T02:43:13.247Z,77.83
2018-05-08T02:44:48.344Z,78.05
2018-05-08T02:46:25.109Z,78.08
2018-05-08T02:48:00.206Z,78.32
2018-05-08T02:49:35.338Z,78.33
2018-05-08T02:51:11.072Z,78.42
2018-05-08T02:52:46.141Z,78.48
2018-05-08T02:54:21.761Z,78.31
2018-05-08T02:55:58.483Z,78.37
2018-05-08T02:57:33.522Z,78.52
2018-05-08T02:59:08.646Z,78.78
2018-05-08T03:00:43.753Z,79.06
2018-05-08T03:02:19.737Z,79.29
2018-05-08T03:03:54.838Z,79.26
2018-05-08T03:05:29.943Z,79.08
2018-05-08T03:07:05.000Z,79.16
2018-05-08T03:08:40.172Z,79.23
2018-05-08T03:10:15.195Z,79.16
2018-05-08T03:11:50.234Z,79.14
2018-05-08T03:13:26.067Z,79.05
2018-05-08T03:15:01.192Z,78.96
2018-05-08T03:16:38.226Z,78.83
2018-05-08T03:18:31.175Z,78.69
2018-05-08T03:20:06.270Z,78.58
2018-05-08T03:21:41.341Z,78.65
2018-05-08T03:23:16.443Z,78.74
2018-05-08T03:24:51.546Z,78.75
2018-05-08T03:26:26.627Z,78.81
2018-05-08T03:28:02.475Z,78.95
2018-05-08T03:29:37.596Z,78.96
2018-05-08T03:31:12.705Z,78.92
2018-05-08T03:32:47.764Z,78.89
2018-05-08T03:34:22.883Z,79.11
2018-05-08T03:35:58.688Z,78.99
2018-05-08T03:37:35.744Z,78.83
2018-05-08T03:39:10.806Z,79.01
2018-05-08T03:40:45.892Z,78.95
2018-05-08T03:42:21.017Z,78.71
2018-05-08T03:43:57.346Z,78.69
2018-05-08T03:45:34.659Z,78.62
2018-05-08T03:47:09.709Z,78.61
2018-05-08T03:48:44.824Z,78.64
2018-05-08T03:50:19.939Z,78.75
2018-05-08T03:51:55.653Z,78.54
2018-05-08T03:53:30.726Z,78.53
2018-05-08T03:55:05.852Z,78.39
2018-05-08T03:56:41.557Z,78.12
2018-05-08T03:58:16.630Z,77.45
2018-05-08T03:59:51.734Z,77.24
2018-05-08T04:01:45.435Z,77.34
2018-05-08T04:03:38.174Z,77.37
2018-05-08T04:05:31.039Z,77.68
2018-05-08T04:07:23.772Z,77.67
2018-05-08T04:08:58.820Z,77.25
2018-05-08T04:10:34.686Z,77.15
2018-05-08T04:12:09.793Z,76.92
2018-05-08T04:13:44.861Z,76.44
2018-05-08T04:15:19.950Z,75.24
2018-05-08T04:16:55.084Z,74.50
2018-05-08T04:18:30.940Z,74.03
2018-05-08T04:20:05.994Z,72.33
2018-05-08T04:21:41.140Z,70.25
2018-05-08T04:23:16.246Z,68.73
2018-05-08T04:24:51.357Z,68.02
2018-05-08T04:26:26.456Z,67.52
2018-05-08T04:28:01.570Z,64.99
2018-05-08T04:29:37.452Z,60.93
2018-05-08T04:31:12.619Z,57.24
2018-05-08T04:32:48.813Z,53.08
2018-05-08T04:34:23.894Z,49.96
2018-05-08T04:35:59.792Z,48.40
2018-05-08T04:37:41.721Z,47.48
2018-05-08T04:39:17.814Z,47.80
2018-05-08T04:41:04.107Z,48.77
2018-05-08T04:42:39.201Z,51.28
2018-05-08T04:44:26.873Z,53.46
2018-05-08T04:46:07.036Z,56.09
2018-05-08T05:02:34.580Z,70.48
2018-05-08T12:50:43.581Z,37.00
2018-05-08T12:52:19.431Z,34.71
2018-05-08T12:53:54.507Z,34.19
2018-05-08T12:55:29.668Z,33.96
2018-05-08T12:57:08.325Z,33.55
2018-05-08T12:58:43.481Z,34.32
2018-05-08T13:00:22.289Z,34.14
2018-05-08T13:01:58.337Z,33.32
2018-05-08T13:03:35.457Z,33.09
2018-05-08T13:05:10.643Z,33.18
2018-05-08T13:11:03.179Z,34.39
2018-05-08T13:12:45.448Z,33.48
2018-05-08T13:14:21.294Z,32.99
2018-05-08T13:15:56.583Z,32.90
2018-05-08T13:17:34.373Z,32.46
2018-05-08T13:19:09.445Z,32.94
2018-05-08T13:20:45.031Z,33.06
2018-05-08T13:22:23.990Z,33.04
2018-05-08T13:23:59.209Z,32.87
2018-05-08T13:25:35.477Z,33.39
2018-05-08T13:27:11.542Z,33.38
2018-05-08T13:28:46.707Z,33.43
2018-05-08T13:30:26.493Z,33.74
2018-05-08T13:33:51.377Z,33.30
2018-05-08T13:35:26.587Z,33.04
2018-05-08T13:37:14.574Z,33.24
2018-05-08T13:38:55.440Z,34.04
2018-05-08T13:40:34.707Z,33.55
2018-05-08T13:42:11.114Z,33.53
2018-05-08T13:43:47.076Z,33.55
2018-05-08T13:45:22.169Z,33.59
2018-05-08T13:47:00.575Z,32.99
2018-05-08T13:48:36.572Z,33.51
2018-05-08T13:50:11.686Z,34.21
2018-05-08T13:51:50.922Z,33.30
2018-05-08T13:53:26.952Z,33.07
2018-05-08T13:55:03.557Z,32.82
2018-05-08T13:56:39.759Z,33.33
2018-05-08T13:58:16.942Z,33.48
2018-05-08T13:59:55.226Z,33.46
2018-05-08T14:01:32.666Z,33.53
2018-05-08T14:03:08.828Z,33.79
2018-05-08T14:04:44.417Z,32.89
2018-05-08T14:06:22.810Z,33.43
2018-05-08T14:07:59.055Z,32.91
2018-05-08T14:09:36.755Z,33.46
2018-05-08T14:13:19.555Z,33.29
2018-05-08T14:14:55.162Z,33.29
2018-05-08T14:16:30.327Z,33.35
2018-05-08T14:20:22.001Z,33.25
2018-05-08T14:21:58.171Z,33.40
2018-05-08T14:23:34.076Z,33.02
2018-05-08T14:25:09.901Z,32.95
2018-05-08T14:26:46.919Z,33.05
2018-05-08T14:28:24.899Z,33.72
2018-05-08T14:30:04.984Z,33.67
2018-05-08T14:31:41.360Z,34.00
2018-05-08T14:33:21.185Z,34.10
2018-05-08T14:34:58.485Z,34.05
2018-05-08T14:36:35.029Z,33.40
2018-05-08T14:38:13.786Z,33.80
2018-05-08T14:39:51.323Z,34.08
2018-05-08T14:41:27.755Z,33.61
2018-05-08T14:43:03.106Z,34.00
2018-05-08T14:44:38.678Z,33.90
2018-05-08T14:46:14.250Z,33.98
2018-05-08T14:47:49.493Z,33.90
2018-05-08T14:49:27.183Z,34.07
2018-05-08T14:51:02.800Z,34.17
2018-05-08T14:52:38.175Z,33.61
2018-05-08T14:54:27.919Z,34.09
2018-05-08T14:56:05.660Z,33.69
2018-05-08T14:57:44.622Z,33.29
2018-05-08T14:59:20.319Z,33.76
2018-05-08T15:00:55.443Z,33.84
2018-05-08T15:02:31.469Z,33.30
2018-05-08T15:04:06.798Z,33.49
2018-05-08T15:05:41.891Z,33.49
2018-05-08T15:07:17.028Z,33.57
2018-05-08T15:08:53.223Z,33.56
2018-05-08T15:10:28.291Z,33.65
2018-05-08T15:12:03.363Z,33.66
2018-05-08T15:13:38.465Z,33.51
2018-05-08T15:15:14.558Z,33.46
2018-05-08T15:16:49.621Z,33.32
2018-05-08T15:18:24.901Z,33.36
2018-05-08T15:20:01.106Z,33.68
2018-05-08T15:21:37.040Z,33.47
2018-05-08T15:23:13.269Z,33.79
2018-05-08T15:24:49.605Z,33.47
2018-05-08T15:26:25.582Z,33.79
2018-05-08T15:28:01.762Z,33.81
2018-05-08T15:29:36.906Z,33.65
2018-05-08T15:31:12.773Z,33.71
2018-05-08T15:32:47.829Z,33.82
2018-05-08T15:34:24.231Z,33.74
2018-05-08T15:35:59.301Z,33.91
2018-05-08T15:37:34.415Z,34.05
2018-05-08T15:39:09.479Z,34.26
2018-05-08T15:40:44.708Z,34.75
2018-05-08T15:42:19.898Z,33.66
2018-05-08T15:43:54.981Z,33.86
2018-05-08T15:45:30.833Z,33.93
2018-05-08T15:47:06.703Z,34.26
2018-05-08T15:48:41.806Z,34.23
2018-05-08T15:50:17.078Z,34.19
2018-05-08T15:51:52.917Z,34.13
2018-05-08T15:53:28.084Z,34.20
2018-05-08T15:55:06.571Z,34.52
2018-05-08T15:56:42.779Z,34.57
2018-05-08T15:58:19.599Z,34.78
2018-05-08T15:59:54.673Z,34.83
2018-05-08T16:01:33.512Z,34.78
2018-05-08T16:03:10.112Z,34.67
2018-05-08T16:04:45.360Z,34.31
2018-05-08T16:06:21.085Z,33.95
2018-05-08T16:08:07.692Z,33.66
2018-05-08T16:09:44.035Z,33.84
2018-05-08T16:11:19.294Z,33.36
2018-05-08T16:12:58.753Z,33.54
2018-05-08T16:14:34.165Z,33.48
2018-05-08T16:16:14.081Z,33.14
2018-05-08T16:17:53.940Z,33.46
2018-05-08T16:19:29.184Z,33.51
2018-05-08T16:21:04.377Z,33.56
2018-05-08T16:22:40.042Z,33.28
2018-05-08T16:24:15.266Z,33.53
2018-05-08T16:25:52.324Z,33.49
2018-05-08T16:27:28.658Z,33.48
2018-05-08T16:29:03.972Z,33.39
2018-05-08T16:30:40.551Z,33.91
2018-05-08T16:32:15.676Z,33.59
2018-05-08T16:33:51.991Z,33.61
2018-05-08T16:35:27.019Z,33.60
2018-05-08T16:37:02.643Z,33.73
2018-05-08T16:38:38.463Z,34.12
2018-05-08T16:40:13.587Z,34.40
2018-05-08T16:41:49.414Z,34.62
2018-05-08T16:43:24.791Z,34.87
2018-05-08T16:44:59.887Z,35.13
2018-05-08T16:46:34.976Z,35.32
2018-05-08T16:48:10.111Z,35.42
2018-05-08T16:49:45.107Z,35.70
2018-05-08T16:51:20.222Z,35.98
2018-05-08T16:52:56.043Z,36.20
2018-05-08T16:54:31.170Z,36.23
2018-05-08T16:56:07.004Z,36.34
2018-05-08T16:57:42.087Z,36.64
2018-05-08T16:59:31.521Z,36.49
2018-05-08T17:01:06.593Z,36.88
2018-05-08T17:02:41.678Z,36.79
2018-05-08T17:04:17.548Z,36.59
2018-05-08T17:05:54.331Z,36.70
2018-05-08T17:07:29.437Z,36.87
2018-05-08T17:09:04.540Z,37.05
2018-05-08T17:10:44.180Z,37.26
2018-05-08T17:12:20.977Z,37.18
2018-05-08T17:13:56.780Z,37.33
2018-05-08T17:15:32.409Z,37.33
2018-05-08T17:17:09.070Z,37.52
2018-05-08T17:18:47.927Z,37.40
2018-05-08T17:20:27.837Z,37.48
2018-05-08T17:22:03.660Z,37.56
2018-05-08T17:23:39.052Z,37.80
2018-05-08T17:25:17.880Z,37.92
2018-05-08T17:26:53.926Z,37.67
2018-05-08T17:28:36.868Z,37.97
2018-05-08T17:30:12.315Z,37.93
2018-05-08T17:31:48.205Z,38.32
2018-05-08T17:33:25.195Z,38.32
2018-05-08T17:35:00.909Z,38.67
2018-05-08T17:37:04.794Z,38.89
2018-05-08T17:38:41.886Z,38.90
2018-05-08T17:40:18.237Z,38.98
2018-05-08T17:41:54.470Z,39.08
2018-05-08T17:43:31.124Z,39.36
2018-05-08T17:45:06.517Z,39.38
2018-05-08T17:46:42.112Z,39.49
2018-05-08T17:48:17.784Z,39.84
2018-05-08T17:49:54.804Z,40.21
2018-05-08T17:51:30.615Z,39.50
2018-05-08T17:53:06.354Z,39.16
2018-05-08T17:54:42.053Z,38.76
2018-05-08T17:58:19.443Z,39.12
2018-05-08T17:59:54.843Z,39.14
2018-05-08T18:01:30.358Z,39.09
2018-05-08T18:03:08.696Z,39.06
2018-05-08T18:04:49.323Z,39.15
2018-05-08T18:06:28.507Z,39.10
2018-05-08T18:08:03.990Z,39.44
2018-05-08T18:09:39.640Z,39.63
2018-05-08T18:11:16.296Z,39.71
2018-05-08T18:12:52.053Z,39.88
2018-05-08T18:14:27.872Z,39.96
2018-05-08T18:16:03.377Z,40.15
2018-05-08T18:17:39.101Z,40.49
2018-05-08T18:19:14.084Z,40.53
2018-05-08T18:20:49.155Z,40.90
2018-05-08T18:22:25.180Z,41.17
2018-05-08T18:24:00.479Z,41.28
2018-05-08T18:25:35.740Z,41.48
2018-05-08T18:27:11.189Z,41.61
2018-05-08T18:28:47.108Z,41.73
2018-05-08T18:30:22.541Z,42.04
2018-05-08T18:31:58.484Z,42.17
2018-05-08T18:33:34.593Z,42.45
2018-05-08T18:35:11.826Z,42.36
2018-05-08T18:36:48.166Z,42.42
2018-05-08T18:38:25.265Z,42.57
2018-05-08T18:40:00.522Z,42.57
2018-05-08T18:41:36.312Z,42.79
2018-05-08T18:43:12.676Z,42.95
2018-05-08T18:44:47.963Z,42.88
2018-05-08T18:46:25.984Z,43.09
2018-05-08T18:48:01.122Z,43.08
2018-05-08T18:49:36.774Z,43.05
2018-05-08T18:51:12.319Z,43.28
2018-05-08T18:52:47.657Z,43.31
2018-05-08T18:54:24.377Z,43.44
2018-05-08T18:55:59.467Z,43.51
2018-05-08T18:57:34.941Z,43.56
2018-05-08T18:59:10.048Z,43.78
2018-05-08T19:00:52.182Z,43.93
2018-05-08T19:02:27.229Z,44.13
2018-05-08T19:04:02.331Z,44.34
2018-05-08T19:05:37.420Z,44.51
2018-05-08T19:07:12.485Z,44.27
2018-05-08T19:08:47.533Z,44.50
2018-05-08T19:10:22.971Z,44.89
2018-05-08T19:11:58.271Z,44.68
2018-05-08T19:13:33.951Z,45.06
2018-05-08T19:15:15.168Z,44.94
2018-05-08T19:16:50.381Z,45.23
2018-05-08T19:18:30.855Z,44.80
2018-05-08T19:20:06.342Z,45.13
2018-05-08T19:21:41.457Z,45.35
2018-05-08T19:23:16.512Z,45.42
2018-05-08T19:24:51.899Z,45.33
2018-05-08T19:26:27.040Z,45.46
2018-05-08T19:28:07.475Z,45.82
2018-05-08T19:29:48.016Z,45.69
2018-05-08T19:31:23.840Z,45.56
2018-05-08T19:32:58.944Z,45.61
2018-05-08T19:34:39.352Z,45.78
2018-05-08T19:36:19.980Z,45.83
2018-05-08T19:38:00.545Z,45.44
2018-05-08T19:39:35.612Z,45.78
2018-05-08T19:41:10.688Z,45.82
2018-05-08T19:42:45.756Z,45.86
2018-05-08T19:44:20.859Z,45.71
2018-05-08T19:45:56.419Z,45.85
2018-05-08T19:47:31.479Z,45.97
2018-05-08T19:49:06.950Z,46.27
2018-05-08T19:50:42.111Z,46.34
2018-05-08T19:52:17.182Z,46.54
2018-05-08T19:53:52.951Z,46.44
2018-05-08T19:55:28.833Z,46.64
2018-05-08T19:57:03.880Z,46.88
2018-05-08T19:58:38.952Z,47.43
2018-05-08T20:00:14.000Z,46.92
2018-05-08T20:01:49.111Z,46.90
2018-05-08T20:03:25.701Z,47.59
2018-05-08T20:05:00.817Z,47.56
2018-05-08T20:06:35.907Z,48.31
2018-05-08T20:08:11.005Z,47.59
2018-05-08T20:09:46.882Z,47.54
2018-05-08T20:11:21.959Z,49.38
2018-05-08T20:12:57.778Z,48.91
2018-05-08T20:14:32.867Z,48.60
2018-05-08T20:16:07.961Z,50.76
2018-05-08T20:17:43.042Z,51.03
2018-05-08T20:19:18.116Z,51.31
2018-05-08T20:20:54.817Z,52.57
2018-05-08T20:22:29.878Z,53.44
2018-05-08T20:24:04.963Z,53.38
2018-05-08T20:25:40.846Z,54.03
2018-05-08T20:27:15.910Z,54.34
2018-05-08T20:28:52.156Z,54.55
2018-05-08T20:30:27.316Z,54.83
2018-05-08T20:32:02.369Z,54.82
2018-05-08T20:33:38.212Z,54.86
2018-05-08T20:35:13.280Z,55.19
2018-05-08T20:36:48.388Z,55.47
2018-05-08T20:38:24.230Z,55.54
2018-05-08T20:39:59.316Z,55.72
2018-05-08T20:41:34.420Z,55.60
2018-05-08T20:43:09.532Z,55.68
2018-05-08T20:44:44.609Z,55.90
2018-05-08T20:46:19.771Z,56.18
2018-05-08T20:47:54.863Z,56.23
2018-05-08T20:49:29.986Z,56.50
2018-05-08T20:51:05.066Z,56.45
2018-05-08T20:52:40.143Z,56.43
2018-05-08T20:54:15.235Z,56.45
2018-05-08T20:55:50.329Z,56.76
2018-05-08T20:57:25.412Z,56.85
2018-05-08T20:59:00.536Z,56.88
2018-05-08T21:00:35.659Z,57.01
2018-05-08T21:02:10.764Z,57.26
2018-05-08T21:03:45.840Z,57.40
2018-05-08T21:05:20.963Z,57.52
2018-05-08T21:06:56.019Z,57.45
2018-05-08T21:08:31.141Z,57.79
2018-05-08T21:10:06.219Z,57.68
2018-05-08T21:11:41.291Z,57.56
2018-05-08T21:13:16.367Z,57.07
2018-05-08T21:14:52.243Z,57.64
2018-05-08T21:16:27.360Z,57.38
2018-05-08T21:18:02.460Z,57.53
2018-05-08T21:19:37.490Z,57.50
2018-05-08T21:21:12.587Z,57.60
2018-05-08T21:22:47.692Z,57.45
2018-05-08T21:24:22.788Z,58.02
2018-05-08T21:25:57.852Z,58.19
2018-05-08T21:27:38.325Z,57.19
2018-05-08T21:29:18.794Z,57.69
2018-05-08T21:30:59.289Z,57.98
2018-05-08T21:32:34.344Z,57.73
2018-05-08T21:34:09.446Z,57.88
2018-05-08T21:35:44.519Z,58.32
2018-05-08T21:37:19.600Z,58.68
2018-05-08T21:38:54.655Z,58.96
2018-05-08T21:40:29.723Z,58.96
2018-05-08T21:42:04.778Z,58.47
2018-05-08T21:43:39.886Z,58.46
2018-05-08T21:45:15.716Z,58.76
2018-05-08T21:46:50.941Z,59.24
2018-05-08T21:48:26.092Z,59.34
2018-05-08T21:50:01.184Z,59.44
2018-05-08T21:51:36.337Z,59.72
2018-05-08T21:53:11.421Z,59.62
2018-05-08T21:54:46.463Z,59.77
2018-05-08T21:56:21.552Z,59.75
2018-05-08T21:57:56.655Z,59.73
2018-05-08T21:59:31.712Z,59.81
2018-05-08T22:01:07.520Z,59.63
2018-05-08T22:02:42.586Z,59.78
2018-05-08T22:04:18.456Z,59.84
2018-05-08T22:05:54.271Z,59.78
2018-05-08T22:07:29.340Z,60.01
2018-05-08T22:09:04.415Z,59.99
2018-05-08T22:10:39.513Z,60.04
2018-05-08T22:12:14.589Z,59.88
2018-05-08T22:13:49.639Z,60.09
2018-05-08T22:15:25.387Z,60.28
2018-05-08T22:17:00.475Z,60.28
2018-05-08T22:18:36.296Z,60.71
2018-05-08T22:20:12.300Z,60.96
2018-05-08T22:21:47.369Z,61.06
2018-05-08T22:23:22.518Z,61.29
2018-05-08T22:24:57.589Z,61.49
2018-05-08T22:26:32.674Z,61.80
2018-05-08T22:28:08.097Z,62.08
2018-05-08T22:29:43.933Z,62.37
2018-05-08T22:31:18.988Z,62.54
2018-05-08T22:32:54.036Z,62.62
2018-05-08T22:34:29.143Z,62.86
2018-05-08T22:36:04.212Z,63.10
2018-05-08T22:37:39.266Z,63.14
2018-05-08T22:39:14.373Z,62.98
